createdAt,value
2023-01-28T00:02:48.227Z,1.4
2023-01-28T00:12:50.016Z,1.4
2023-01-28T00:22:52.277Z,1.4
2023-01-28T00:32:54.090Z,1.4
2023-01-28T00:42:56.645Z,1.4
2023-01-28T00:52:58.680Z,1.3
2023-01-28T00:55:37.014Z,1.3
2023-01-28T01:03:10.150Z,1.3
2023-01-28T01:13:11.939Z,1.3
2023-01-28T01:23:13.677Z,1.3
2023-01-28T01:33:16.108Z,1.2
2023-01-28T01:43:18.674Z,1.2
2023-01-28T01:53:21.239Z,1.2
2023-01-28T02:03:23.507Z,1.2
2023-01-28T02:13:25.725Z,1.3
2023-01-28T02:23:27.446Z,1.2
2023-01-28T02:33:30.100Z,1.2
2023-01-28T02:43:32.311Z,1.2
2023-01-28T02:53:34.441Z,1.1
2023-01-28T03:03:36.899Z,1.1
2023-01-28T03:13:38.616Z,1.1
2023-01-28T03:23:40.351Z,1.1
2023-01-28T03:33:42.458Z,1
2023-01-28T03:43:44.559Z,1
2023-01-28T03:53:46.665Z,1
2023-01-28T04:03:48.904Z,0.9
2023-01-28T04:13:50.933Z,0.9
2023-01-28T04:23:53.596Z,0.8
2023-01-28T04:33:56.139Z,0.8
2023-01-28T04:43:57.921Z,0.7
2023-01-28T05:04:02.174Z,0.7
2023-01-28T05:14:04.065Z,0.6
2023-01-28T05:24:06.376Z,0.6
2023-01-28T05:34:09.023Z,0.5
2023-01-28T05:44:11.281Z,0.6
2023-01-28T05:54:13.333Z,0.6
2023-01-28T06:04:15.396Z,0.6
2023-01-28T06:14:17.900Z,0.6
2023-01-28T06:24:19.858Z,0.6
2023-01-28T06:34:22.275Z,0.6
2023-01-28T06:44:24.438Z,0.5
2023-01-28T06:54:26.523Z,0.6
2023-01-28T07:04:28.861Z,0.6
2023-01-28T07:14:31.502Z,0.5
2023-01-28T07:24:33.727Z,0.4
2023-01-28T07:34:35.862Z,0.4
2023-01-28T07:54:39.878Z,0.4
2023-01-28T08:04:41.883Z,0.4
2023-01-28T08:14:43.804Z,0.4
2023-01-28T08:24:46.397Z,0.4
2023-01-28T08:34:48.081Z,0.5
2023-01-28T08:44:50.183Z,0.6
2023-01-28T08:54:51.976Z,0.4
2023-01-28T09:04:53.676Z,0.4
2023-01-28T09:14:56.105Z,0.7
2023-01-28T09:24:57.832Z,0.7
2023-01-28T09:34:59.972Z,0.7
2023-01-28T09:45:02.445Z,0.5
2023-01-28T09:55:04.467Z,0.8
2023-01-28T10:05:07.090Z,0.7
2023-01-28T10:15:09.005Z,0.7
2023-01-28T10:25:11.511Z,0.5
2023-01-28T10:45:16.408Z,0.9
2023-01-28T10:55:18.234Z,0.8
2023-01-28T11:05:20.220Z,0.6
2023-01-28T11:15:22.578Z,0.5
2023-01-28T11:25:24.319Z,0.5
2023-01-28T11:35:26.611Z,0.6
2023-01-28T11:45:29.130Z,0.8
2023-01-28T11:55:31.219Z,0.6
2023-01-28T12:05:33.519Z,0.6
2023-01-28T12:15:35.838Z,0.6
2023-01-28T12:25:37.508Z,0.5
2023-01-28T12:35:39.892Z,0.8
2023-01-28T12:45:41.956Z,0.8
2023-01-28T12:55:43.606Z,1
2023-01-28T13:05:45.849Z,1
2023-01-28T13:15:48.124Z,0.9
2023-01-28T13:25:49.808Z,1.1
2023-01-28T13:35:52.088Z,0.9
2023-01-28T13:45:54.557Z,1.1
2023-01-28T13:55:56.400Z,1
2023-01-28T14:05:58.690Z,1.3
2023-01-28T14:16:00.621Z,1.5
2023-01-28T14:36:04.899Z,1.6
2023-01-28T14:46:06.977Z,0.8
2023-01-28T14:56:09.566Z,0.8
2023-01-28T15:06:11.876Z,0.6
2023-01-28T15:16:13.897Z,0.8
2023-01-28T15:26:15.675Z,0.7
2023-01-28T15:36:17.748Z,0.7
2023-01-28T15:46:19.663Z,0.8
2023-01-28T15:56:22.249Z,0.6
2023-01-28T16:26:28.913Z,0.3
2023-01-28T16:36:31.228Z,0.1
2023-01-28T16:46:33.242Z,0
2023-01-28T16:56:44.997Z,0
2023-01-28T17:06:37.816Z,-0.2
2023-01-28T17:16:40.053Z,-0.3
2023-01-28T17:36:44.011Z,-0.6
2023-01-28T17:46:46.170Z,-0.9
2023-01-28T17:56:47.856Z,-1
2023-01-28T18:06:49.960Z,-1.2
2023-01-28T18:16:52.261Z,-1.3
2023-01-28T18:26:54.221Z,-1.4
2023-01-28T18:36:56.342Z,-1.4
2023-01-28T18:46:58.134Z,-1.5
2023-01-28T18:56:59.867Z,-1.6
2023-01-28T19:07:02.131Z,-1.7
2023-01-28T19:17:04.522Z,-1.7
2023-01-28T19:37:09.315Z,-1.8
2023-01-28T19:47:11.131Z,-1.8
2023-01-28T19:57:13.192Z,-1.9
2023-01-28T20:17:18.073Z,-1.9
2023-01-28T20:37:22.454Z,-2
2023-01-28T20:47:24.495Z,-2
2023-01-28T20:57:26.355Z,-2.1
2023-01-28T21:07:28.129Z,-2.1
2023-01-28T21:27:33.001Z,-2.2
2023-01-28T21:37:35.511Z,-2.2
2023-01-28T21:57:40.355Z,-2.2
2023-01-28T22:17:44.901Z,-2.3
2023-01-28T22:27:47.434Z,-2.3
2023-01-28T22:37:49.646Z,-2.3
2023-01-28T22:47:52.023Z,-2.2
2023-01-28T22:57:53.866Z,-2.2
2023-01-28T23:07:55.635Z,-2.2
2023-01-28T23:17:57.455Z,-2.2
2023-01-28T23:27:59.188Z,-2.2
2023-01-28T23:38:01.770Z,-2.3
2023-01-28T23:48:04.295Z,-2.3
2023-01-28T23:58:06.394Z,-2.3
